createdAt,value
2023-01-28T00:01:37.054Z,8.55
2023-01-28T00:04:10.480Z,8.13
2023-01-28T00:06:41.240Z,9.45
2023-01-28T00:09:14.490Z,8.48
2023-01-28T00:11:45.405Z,8.20
2023-01-28T00:14:16.515Z,10.52
2023-01-28T00:16:47.240Z,10.90
2023-01-28T00:19:20.545Z,9.15
2023-01-28T00:21:51.277Z,8.95
2023-01-28T00:24:22.142Z,9.13
2023-01-28T00:26:52.953Z,8.75
2023-01-28T00:29:26.439Z,10.55
2023-01-28T00:31:57.401Z,8.57
2023-01-28T00:34:31.686Z,10.02
2023-01-28T00:37:02.431Z,9.15
2023-01-28T00:39:33.309Z,9.43
2023-01-28T00:42:04.313Z,10.82
2023-01-28T00:44:35.013Z,9.20
2023-01-28T00:47:07.813Z,9.73
2023-01-28T00:49:41.330Z,10.32
2023-01-28T00:52:12.182Z,10.10
2023-01-28T00:54:42.901Z,9.47
2023-01-28T00:57:16.416Z,10.50
2023-01-28T00:59:47.309Z,10.83
2023-01-28T01:02:18.070Z,10.10
2023-01-28T01:05:01.220Z,10.50
2023-01-28T01:07:41.905Z,10.27
2023-01-28T01:10:14.559Z,11.30
2023-01-28T01:12:46.049Z,10.25
2023-01-28T01:15:17.169Z,9.35
2023-01-28T01:17:53.214Z,10.25
2023-01-28T01:20:29.310Z,10.23
2023-01-28T01:23:00.058Z,9.10
2023-01-28T01:25:30.931Z,10.60
2023-01-28T01:28:01.659Z,10.40
2023-01-28T01:30:33.015Z,10.23
2023-01-28T01:33:03.817Z,11.40
2023-01-28T01:35:37.433Z,9.30
2023-01-28T01:38:08.548Z,8.63
2023-01-28T01:40:39.619Z,8.33
2023-01-28T01:43:19.502Z,8.27
2023-01-28T01:45:53.537Z,9.63
2023-01-28T01:48:27.831Z,8.13
2023-01-28T01:51:06.361Z,8.17
2023-01-28T01:53:38.110Z,8.23
2023-01-28T01:56:11.979Z,9.32
2023-01-28T01:58:46.795Z,8.57
2023-01-28T02:01:17.743Z,8.17
2023-01-28T02:03:58.204Z,8.50
2023-01-28T02:06:33.005Z,9.17
2023-01-28T02:09:03.896Z,8.60
2023-01-28T02:11:36.662Z,11.05
2023-01-28T02:14:19.439Z,8.90
2023-01-28T02:16:57.180Z,8.70
2023-01-28T02:19:31.960Z,9.98
2023-01-28T02:22:29.536Z,11.97
2023-01-28T02:25:21.146Z,9.40
2023-01-28T02:28:10.920Z,9.73
2023-01-28T02:30:45.725Z,9.10
2023-01-28T02:33:21.154Z,8.53
2023-01-28T02:35:56.049Z,8.95
2023-01-28T02:38:37.300Z,8.73
2023-01-28T02:41:11.534Z,10.68
2023-01-28T02:43:46.688Z,9.82
2023-01-28T02:46:36.039Z,9.80
2023-01-28T02:49:11.271Z,12.30
2023-01-28T02:51:55.663Z,10.05
2023-01-28T02:54:35.332Z,9.97
2023-01-28T02:57:15.555Z,7.90
2023-01-28T02:59:54.633Z,11.00
2023-01-28T03:02:33.406Z,8.60
2023-01-28T03:05:14.416Z,7.57
2023-01-28T03:07:46.253Z,7.20
2023-01-28T03:10:18.662Z,6.47
2023-01-28T03:13:05.850Z,8.75
2023-01-28T03:15:56.238Z,12.30
2023-01-28T03:18:43.062Z,9.10
2023-01-28T03:21:30.593Z,8.10
2023-01-28T03:24:16.439Z,7.38
2023-01-28T03:27:09.628Z,9.55
2023-01-28T03:29:54.897Z,11.60
2023-01-28T03:32:41.119Z,7.78
2023-01-28T03:35:29.230Z,11.15
2023-01-28T03:40:58.418Z,8.80
2023-01-28T03:43:29.590Z,10.57
2023-01-28T03:46:00.914Z,10.10
2023-01-28T03:48:35.128Z,10.70
2023-01-28T03:51:08.147Z,10.15
2023-01-28T03:53:39.437Z,12.13
2023-01-28T03:56:18.591Z,11.00
2023-01-28T03:58:52.838Z,9.93
2023-01-28T04:01:24.416Z,10.50
2023-01-28T04:03:58.350Z,11.57
2023-01-28T04:06:29.141Z,13.25
2023-01-28T04:09:00.042Z,14.07
2023-01-28T04:11:30.828Z,12.30
2023-01-28T04:14:01.651Z,11.68
2023-01-28T04:16:32.700Z,13.05
2023-01-28T04:19:06.223Z,12.20
2023-01-28T04:21:37.053Z,11.32
2023-01-28T04:24:08.531Z,12.02
2023-01-28T04:26:40.141Z,11.38
2023-01-28T04:29:13.942Z,11.40
2023-01-28T04:31:44.760Z,12.50
2023-01-28T04:34:21.198Z,12.18
2023-01-28T04:36:51.962Z,11.90
2023-01-28T04:39:22.664Z,11.30
2023-01-28T04:41:56.284Z,13.05
2023-01-28T04:44:29.258Z,11.35
2023-01-28T04:47:00.021Z,11.70
2023-01-28T04:49:33.453Z,10.98
2023-01-28T04:52:04.140Z,12.05
2023-01-28T04:54:34.890Z,12.57
2023-01-28T04:57:08.868Z,11.55
2023-01-28T04:59:42.487Z,12.30
2023-01-28T05:02:13.356Z,11.75
2023-01-28T05:04:48.962Z,11.68
2023-01-28T05:07:19.819Z,11.65
2023-01-28T05:09:50.602Z,13.75
2023-01-28T05:12:21.319Z,12.98
2023-01-28T05:14:52.129Z,14.90
2023-01-28T05:17:23.005Z,15.13
2023-01-28T05:19:59.116Z,17.58
2023-01-28T05:22:30.302Z,18.00
2023-01-28T05:25:06.380Z,15.85
2023-01-28T05:27:37.955Z,14.70
2023-01-28T05:30:10.318Z,15.52
2023-01-28T05:32:42.863Z,15.52
2023-01-28T05:35:16.929Z,16.35
2023-01-28T05:37:47.810Z,14.38
2023-01-28T05:40:19.111Z,15.32
2023-01-28T05:42:52.210Z,15.18
2023-01-28T05:45:24.334Z,14.95
2023-01-28T05:47:55.327Z,15.77
2023-01-28T05:50:28.731Z,15.52
2023-01-28T05:52:59.710Z,16.10
2023-01-28T05:55:30.506Z,17.85
2023-01-28T05:58:01.215Z,14.60
2023-01-28T06:00:31.978Z,16.25
2023-01-28T06:03:03.350Z,16.45
2023-01-28T06:05:38.767Z,15.02
2023-01-28T06:08:10.265Z,14.13
2023-01-28T06:10:41.004Z,13.20
2023-01-28T06:13:11.971Z,14.60
2023-01-28T06:15:42.758Z,17.00
2023-01-28T06:18:13.577Z,17.88
2023-01-28T06:20:49.406Z,19.00
2023-01-28T06:23:20.217Z,14.00
2023-01-28T06:25:56.665Z,12.98
2023-01-28T06:28:31.064Z,14.20
2023-01-28T06:31:02.102Z,14.85
2023-01-28T06:33:32.953Z,13.73
2023-01-28T06:36:10.295Z,12.60
2023-01-28T06:38:44.047Z,12.93
2023-01-28T06:41:14.949Z,11.68
2023-01-28T06:43:45.754Z,10.80
2023-01-28T06:46:16.499Z,13.20
2023-01-28T06:48:47.348Z,13.13
2023-01-28T06:51:20.647Z,14.80
2023-01-28T06:53:51.385Z,13.48
2023-01-28T06:56:25.353Z,13.75
2023-01-28T06:58:56.403Z,13.88
2023-01-28T07:01:27.429Z,12.75
2023-01-28T07:03:59.036Z,11.13
2023-01-28T07:06:32.383Z,14.85
2023-01-28T07:09:06.409Z,13.07
2023-01-28T07:11:42.550Z,9.60
2023-01-28T07:14:13.287Z,10.98
2023-01-28T07:16:44.028Z,9.18
2023-01-28T07:19:14.780Z,9.32
2023-01-28T07:21:48.193Z,8.70
2023-01-28T07:24:19.094Z,9.10
2023-01-28T07:26:53.370Z,9.48
2023-01-28T07:29:26.903Z,8.55
2023-01-28T07:31:57.760Z,10.52
2023-01-28T07:34:28.846Z,8.50
2023-01-28T07:37:03.319Z,9.20
2023-01-28T07:39:34.921Z,9.32
2023-01-28T07:42:05.912Z,8.25
2023-01-28T07:44:37.516Z,9.27
2023-01-28T07:47:09.708Z,7.82
2023-01-28T07:49:40.656Z,8.70
2023-01-28T07:52:15.308Z,8.88
2023-01-28T07:54:46.091Z,8.63
2023-01-28T07:57:23.149Z,9.45
2023-01-28T07:59:54.205Z,8.88
2023-01-28T08:02:25.043Z,9.18
2023-01-28T08:04:59.300Z,10.85
2023-01-28T08:07:33.804Z,9.32
2023-01-28T08:10:04.626Z,9.35
2023-01-28T08:12:35.424Z,9.63
2023-01-28T08:15:06.950Z,7.88
2023-01-28T08:17:39.948Z,8.80
2023-01-28T08:20:13.070Z,7.90
2023-01-28T08:22:46.525Z,7.90
2023-01-28T08:25:17.490Z,8.55
2023-01-28T08:27:48.403Z,10.73
2023-01-28T08:30:19.445Z,11.13
2023-01-28T08:32:50.152Z,10.00
2023-01-28T08:35:23.581Z,10.95
2023-01-28T08:37:57.350Z,10.15
2023-01-28T08:40:32.059Z,11.27
2023-01-28T08:43:03.204Z,9.23
2023-01-28T08:45:33.976Z,9.55
2023-01-28T08:48:07.385Z,10.80
2023-01-28T08:50:42.699Z,8.73
2023-01-28T08:53:17.545Z,9.38
2023-01-28T08:55:50.418Z,11.98
2023-01-28T08:58:21.581Z,10.23
2023-01-28T09:00:53.243Z,9.43
2023-01-28T09:03:24.007Z,10.07
2023-01-28T09:05:54.726Z,9.45
2023-01-28T09:08:28.021Z,12.77
2023-01-28T09:10:59.236Z,10.93
2023-01-28T09:13:30.929Z,13.30
2023-01-28T09:16:01.783Z,16.50
2023-01-28T09:18:32.443Z,17.65
2023-01-28T09:21:03.208Z,21.27
2023-01-28T09:23:37.641Z,22.30
2023-01-28T09:26:09.154Z,24.17
2023-01-28T09:28:40.279Z,29.02
2023-01-28T09:31:13.625Z,25.95
2023-01-28T09:33:44.691Z,26.55
2023-01-28T09:36:15.397Z,29.17
2023-01-28T09:38:48.672Z,27.50
2023-01-28T09:41:28.757Z,25.85
2023-01-28T09:44:13.654Z,24.65
2023-01-28T09:46:45.822Z,28.65
2023-01-28T09:49:23.241Z,21.35
2023-01-28T09:51:57.222Z,16.63
2023-01-28T09:54:44.291Z,17.33
2023-01-28T09:57:22.322Z,11.48
2023-01-28T09:59:53.290Z,11.70
2023-01-28T10:02:35.572Z,14.70
2023-01-28T10:05:19.045Z,13.13
2023-01-28T10:08:00.165Z,17.10
2023-01-28T10:10:45.288Z,20.52
2023-01-28T10:13:34.742Z,19.90
2023-01-28T10:16:19.447Z,20.95
2023-01-28T10:18:58.996Z,18.48
2023-01-28T10:21:37.088Z,16.60
2023-01-28T10:24:14.374Z,17.85
2023-01-28T10:26:48.735Z,23.30
2023-01-28T10:29:21.899Z,30.80
2023-01-28T10:31:56.055Z,22.50
2023-01-28T10:34:31.097Z,26.10
2023-01-28T10:37:02.004Z,28.92
2023-01-28T10:39:33.035Z,25.38
2023-01-28T10:42:18.875Z,24.40
2023-01-28T10:44:52.422Z,23.58
2023-01-28T10:47:31.972Z,23.70
2023-01-28T10:50:07.543Z,23.67
2023-01-28T10:52:38.420Z,22.15
2023-01-28T10:55:10.193Z,27.80
2023-01-28T10:57:45.446Z,29.50
2023-01-28T11:00:28.344Z,30.65
2023-01-28T11:03:00.201Z,25.30
2023-01-28T11:05:34.480Z,27.00
2023-01-28T11:08:15.354Z,29.38
2023-01-28T11:10:49.450Z,26.63
2023-01-28T11:13:24.634Z,21.67
2023-01-28T11:15:58.456Z,20.58
2023-01-28T11:18:34.635Z,18.17
2023-01-28T11:21:08.986Z,18.60
2023-01-28T11:23:52.127Z,16.73
2023-01-28T11:26:26.863Z,15.60
2023-01-28T11:29:00.342Z,14.77
2023-01-28T11:31:31.736Z,13.27
2023-01-28T11:37:05.791Z,14.18
2023-01-28T11:39:38.370Z,13.18
2023-01-28T11:42:18.858Z,13.18
2023-01-28T11:44:52.874Z,12.45
2023-01-28T11:47:43.798Z,11.88
2023-01-28T11:50:27.128Z,12.40
2023-01-28T11:53:16.780Z,13.95
2023-01-28T11:56:02.271Z,15.43
2023-01-28T11:58:46.422Z,17.02
2023-01-28T12:01:31.321Z,14.93
2023-01-28T12:04:21.092Z,15.82
2023-01-28T12:07:18.261Z,17.35
2023-01-28T12:09:56.917Z,17.58
2023-01-28T12:12:48.335Z,15.20
2023-01-28T12:15:49.188Z,11.88
2023-01-28T12:18:37.396Z,14.13
2023-01-28T12:21:10.823Z,14.10
2023-01-28T12:24:01.774Z,17.77
2023-01-28T12:26:44.273Z,26.65
2023-01-28T12:29:29.935Z,19.95
2023-01-28T12:32:12.697Z,18.88
2023-01-28T12:35:04.392Z,22.25
2023-01-28T12:37:48.180Z,22.88
2023-01-28T12:40:41.606Z,21.30
2023-01-28T12:43:18.536Z,20.17
2023-01-28T12:45:55.185Z,17.60
2023-01-28T12:48:30.881Z,22.02
2023-01-28T12:51:08.051Z,17.50
2023-01-28T12:53:45.370Z,17.40
2023-01-28T12:56:20.801Z,19.83
2023-01-28T12:58:57.056Z,20.60
2023-01-28T13:01:47.984Z,19.70
2023-01-28T13:04:27.642Z,16.50
2023-01-28T13:07:04.603Z,20.30
2023-01-28T13:09:39.736Z,18.10
2023-01-28T13:12:14.567Z,17.23
2023-01-28T13:14:47.861Z,16.65
2023-01-28T13:17:29.891Z,16.83
2023-01-28T13:20:01.726Z,16.33
2023-01-28T13:22:39.601Z,16.88
2023-01-28T13:25:29.828Z,17.85
2023-01-28T13:28:04.604Z,16.13
2023-01-28T13:30:37.315Z,15.82
2023-01-28T13:33:10.076Z,17.80
2023-01-28T13:35:43.944Z,16.57
2023-01-28T13:38:21.993Z,18.08
2023-01-28T13:41:00.640Z,18.53
2023-01-28T13:43:40.149Z,18.53
2023-01-28T13:46:13.433Z,17.15
2023-01-28T13:48:49.445Z,17.95
2023-01-28T13:51:26.175Z,17.35
2023-01-28T13:54:03.536Z,19.70
2023-01-28T13:56:43.523Z,22.00
2023-01-28T13:59:30.660Z,20.00
2023-01-28T14:02:38.942Z,20.87
2023-01-28T14:05:36.563Z,23.80
2023-01-28T14:08:42.599Z,20.92
2023-01-28T14:11:34.102Z,18.90
2023-01-28T14:14:33.233Z,16.83
2023-01-28T14:17:09.565Z,17.50
2023-01-28T14:19:44.645Z,16.60
2023-01-28T14:22:21.453Z,16.33
2023-01-28T14:24:52.775Z,19.13
2023-01-28T14:27:29.634Z,17.73
2023-01-28T14:30:11.212Z,18.25
2023-01-28T14:32:48.986Z,20.00
2023-01-28T14:35:22.990Z,17.07
2023-01-28T14:37:55.036Z,17.95
2023-01-28T14:40:26.606Z,19.55
2023-01-28T14:43:00.812Z,23.73
2023-01-28T14:45:48.047Z,20.88
2023-01-28T14:48:28.177Z,19.25
2023-01-28T14:51:09.815Z,21.63
2023-01-28T14:54:00.030Z,19.83
2023-01-28T14:56:42.907Z,20.73
2023-01-28T14:59:23.477Z,21.83
2023-01-28T15:01:59.678Z,17.77
2023-01-28T15:04:33.006Z,20.90
2023-01-28T15:07:20.218Z,20.80
2023-01-28T15:10:01.812Z,19.35
2023-01-28T15:12:37.945Z,22.37
2023-01-28T15:15:26.849Z,19.30
2023-01-28T15:17:59.043Z,20.67
2023-01-28T15:20:29.900Z,22.52
2023-01-28T15:23:01.354Z,23.03
2023-01-28T15:25:32.829Z,23.45
2023-01-28T15:28:04.865Z,24.10
2023-01-28T15:30:40.263Z,28.38
2023-01-28T15:33:17.531Z,27.57
2023-01-28T15:35:52.443Z,27.65
2023-01-28T15:38:24.316Z,24.48
2023-01-28T15:40:58.905Z,26.83
2023-01-28T15:43:33.874Z,27.13
2023-01-28T15:46:12.783Z,25.90
2023-01-28T15:48:47.462Z,23.98
2023-01-28T15:51:26.248Z,25.70
2023-01-28T15:54:01.742Z,28.30
2023-01-28T15:56:33.338Z,31.70
2023-01-28T15:59:22.194Z,29.48
2023-01-28T16:02:17.284Z,28.67
2023-01-28T16:05:00.517Z,27.90
2023-01-28T16:07:33.386Z,30.15
2023-01-28T16:10:06.244Z,32.92
2023-01-28T16:12:37.035Z,30.52
2023-01-28T16:15:09.012Z,35.58
2023-01-28T16:17:44.895Z,34.83
2023-01-28T16:20:25.503Z,31.98
2023-01-28T16:22:59.747Z,31.35
2023-01-28T16:25:33.541Z,29.40
2023-01-28T16:28:05.827Z,27.60
2023-01-28T16:30:36.906Z,28.90
2023-01-28T16:33:22.018Z,30.83
2023-01-28T16:36:06.514Z,28.42
2023-01-28T16:38:39.432Z,30.35
2023-01-28T16:41:16.371Z,26.10
2023-01-28T16:43:47.076Z,27.25
2023-01-28T16:46:18.257Z,32.67
2023-01-28T16:48:51.586Z,27.92
2023-01-28T16:51:22.647Z,28.58
2023-01-28T16:53:56.717Z,25.80
2023-01-28T16:56:44.422Z,29.98
2023-01-28T16:59:18.037Z,27.45
2023-01-28T17:01:53.753Z,27.13
2023-01-28T17:04:27.144Z,28.67
2023-01-28T17:07:00.151Z,29.83
2023-01-28T17:09:35.165Z,31.13
2023-01-28T17:12:09.496Z,25.95
2023-01-28T17:14:40.192Z,29.10
2023-01-28T17:17:10.970Z,31.23
2023-01-28T17:19:44.442Z,35.92
2023-01-28T17:22:15.191Z,42.55
2023-01-28T17:24:46.448Z,48.10
2023-01-28T17:27:23.153Z,57.70
2023-01-28T17:29:55.163Z,78.78
2023-01-28T17:32:28.122Z,83.25
2023-01-28T17:35:01.534Z,84.00
2023-01-28T17:37:32.339Z,90.32
2023-01-28T17:40:03.305Z,90.63
2023-01-28T17:42:34.025Z,91.10
2023-01-28T17:45:05.056Z,78.68
2023-01-28T17:47:36.158Z,81.05
2023-01-28T17:50:13.163Z,70.47
2023-01-28T17:52:46.707Z,70.70
2023-01-28T17:55:20.065Z,68.68
2023-01-28T17:57:51.036Z,63.97
2023-01-28T18:00:23.290Z,62.72
2023-01-28T18:02:56.900Z,73.70
2023-01-28T18:05:30.444Z,67.22
2023-01-28T18:08:01.176Z,57.60
2023-01-28T18:10:31.953Z,58.22
2023-01-28T18:13:03.122Z,56.00
2023-01-28T18:15:36.715Z,57.50
2023-01-28T18:18:07.549Z,53.35
2023-01-28T18:20:41.365Z,55.83
2023-01-28T18:23:12.161Z,52.40
2023-01-28T18:25:42.949Z,58.10
2023-01-28T18:28:13.706Z,48.70
2023-01-28T18:30:44.733Z,56.88
2023-01-28T18:33:15.522Z,53.03
2023-01-28T18:35:52.425Z,51.38
2023-01-28T18:38:23.081Z,53.78
2023-01-28T18:40:57.993Z,51.28
2023-01-28T18:43:32.526Z,53.63
2023-01-28T18:46:03.261Z,48.80
2023-01-28T18:48:37.168Z,55.70
2023-01-28T18:51:27.605Z,48.97
2023-01-28T18:54:02.306Z,49.35
2023-01-28T18:56:33.708Z,45.38
2023-01-28T18:59:09.962Z,53.38
2023-01-28T19:01:42.558Z,50.63
2023-01-28T19:04:14.187Z,50.45
2023-01-28T19:06:50.848Z,55.15
2023-01-28T19:09:21.720Z,55.60
2023-01-28T19:11:54.413Z,60.42
2023-01-28T19:14:25.266Z,59.53
2023-01-28T19:16:56.268Z,66.28
2023-01-28T19:19:27.284Z,60.85
2023-01-28T19:22:00.854Z,59.38
2023-01-28T19:24:31.745Z,58.45
2023-01-28T19:27:02.481Z,64.47
2023-01-28T19:29:33.405Z,56.30
2023-01-28T19:32:04.620Z,53.75
2023-01-28T19:34:35.633Z,51.78
2023-01-28T19:37:09.273Z,48.70
2023-01-28T19:39:43.083Z,46.95
2023-01-28T19:42:13.821Z,48.75
2023-01-28T19:44:44.539Z,43.50
2023-01-28T19:47:15.699Z,47.72
2023-01-28T19:49:46.574Z,41.47
2023-01-28T19:52:22.559Z,44.38
2023-01-28T19:54:53.548Z,45.15
2023-01-28T19:57:24.352Z,46.42
2023-01-28T19:59:55.267Z,41.13
2023-01-28T20:02:26.013Z,45.40
2023-01-28T20:05:00.900Z,44.40
2023-01-28T20:07:34.636Z,48.80
2023-01-28T20:10:05.491Z,44.90
2023-01-28T20:12:38.311Z,43.15
2023-01-28T20:15:10.642Z,44.30
2023-01-28T20:17:41.568Z,41.08
2023-01-28T20:20:14.121Z,39.55
2023-01-28T20:22:47.629Z,42.05
2023-01-28T20:25:18.981Z,38.15
2023-01-28T20:27:50.807Z,40.80
2023-01-28T20:30:26.217Z,41.38
2023-01-28T20:32:57.217Z,43.13
2023-01-28T20:35:28.099Z,40.53
2023-01-28T20:38:04.199Z,47.10
2023-01-28T20:40:35.427Z,46.28
2023-01-28T20:43:06.305Z,42.60
2023-01-28T20:45:37.612Z,45.28
2023-01-28T20:48:09.826Z,44.60
2023-01-28T20:50:41.012Z,46.35
2023-01-28T20:53:16.643Z,49.65
2023-01-28T20:55:47.418Z,47.70
2023-01-28T20:58:18.557Z,45.35
2023-01-28T21:00:49.268Z,50.38
2023-01-28T21:03:20.474Z,47.13
2023-01-28T21:05:51.526Z,52.65
2023-01-28T21:08:26.180Z,48.38
2023-01-28T21:10:56.997Z,43.45
2023-01-28T21:13:28.225Z,44.70
2023-01-28T21:16:00.496Z,44.90
2023-01-28T21:18:31.497Z,45.88
2023-01-28T21:21:06.422Z,46.45
2023-01-28T21:23:40.118Z,44.50
2023-01-28T21:26:10.999Z,53.17
2023-01-28T21:28:43.854Z,53.60
2023-01-28T21:31:18.551Z,55.00
2023-01-28T21:33:51.698Z,54.78
2023-01-28T21:36:22.491Z,50.50
2023-01-28T21:39:00.594Z,52.53
2023-01-28T21:41:33.845Z,53.75
2023-01-28T21:44:05.264Z,55.67
2023-01-28T21:46:36.746Z,53.78
2023-01-28T21:49:08.109Z,53.83
2023-01-28T21:51:39.519Z,53.90
2023-01-28T21:54:18.848Z,52.83
2023-01-28T21:56:50.633Z,52.72
2023-01-28T21:59:32.660Z,50.63
2023-01-28T22:02:04.904Z,51.13
2023-01-28T22:04:37.355Z,46.83
2023-01-28T22:07:10.348Z,46.78
2023-01-28T22:09:46.146Z,45.28
2023-01-28T22:12:17.788Z,45.35
2023-01-28T22:14:48.722Z,45.80
2023-01-28T22:17:19.927Z,41.33
2023-01-28T22:19:53.471Z,43.83
2023-01-28T22:22:24.263Z,47.88
2023-01-28T22:24:57.816Z,45.55
2023-01-28T22:27:28.954Z,42.95
2023-01-28T22:30:01.000Z,44.22
2023-01-28T22:32:31.743Z,43.03
2023-01-28T22:35:05.025Z,46.83
2023-01-28T22:37:35.991Z,41.53
2023-01-28T22:40:13.504Z,43.83
2023-01-28T22:42:44.421Z,41.65
2023-01-28T22:45:21.047Z,42.90
2023-01-28T22:47:51.803Z,45.20
2023-01-28T22:50:22.981Z,40.75
2023-01-28T22:52:54.963Z,46.60
2023-01-28T22:55:28.538Z,42.05
2023-01-28T22:58:02.373Z,39.80
2023-01-28T23:00:33.113Z,44.33
2023-01-28T23:03:03.916Z,40.65
2023-01-28T23:05:34.728Z,39.05
2023-01-28T23:08:12.668Z,42.65
2023-01-28T23:10:50.101Z,39.50
2023-01-28T23:13:22.477Z,41.70
2023-01-28T23:16:07.137Z,48.53
2023-01-28T23:18:51.013Z,48.60
2023-01-28T23:21:36.747Z,44.97
2023-01-28T23:24:24.324Z,45.65
2023-01-28T23:26:59.836Z,46.60
2023-01-28T23:29:31.937Z,44.75
2023-01-28T23:32:05.462Z,44.67
2023-01-28T23:34:38.970Z,47.20
2023-01-28T23:37:12.865Z,42.80
2023-01-28T23:39:43.999Z,46.70
2023-01-28T23:42:23.685Z,43.88
2023-01-28T23:44:54.638Z,47.13
2023-01-28T23:47:25.723Z,47.30
2023-01-28T23:49:56.511Z,44.85
2023-01-28T23:52:27.832Z,45.08
2023-01-28T23:54:58.843Z,43.65
2023-01-28T23:57:32.090Z,44.58
